sensor_id;sensor_type;location;lat;lon;timestamp;pressure;altitude;pressure_sealevel;temperature;humidity
29505;BME280;16452;54.174;12.092;2022-07-29T00:00:08;102003.78;;;19.04;72.31
29505;BME280;16452;54.174;12.092;2022-07-29T00:02:34;102001.75;;;18.95;72.79
29505;BME280;16452;54.174;12.092;2022-07-29T00:05:00;102010.81;;;18.78;74.14
29505;BME280;16452;54.174;12.092;2022-07-29T00:07:26;102001.53;;;18.85;73.91
29505;BME280;16452;54.174;12.092;2022-07-29T00:09:52;102000.38;;;18.89;74.75
29505;BME280;16452;54.174;12.092;2022-07-29T00:12:19;102000.81;;;18.96;74.42
29505;BME280;16452;54.174;12.092;2022-07-29T00:14:44;101996.06;;;19.01;73.62
29505;BME280;16452;54.174;12.092;2022-07-29T00:17:10;102000.31;;;18.64;75.18
29505;BME280;16452;54.174;12.092;2022-07-29T00:19:36;101996.25;;;18.85;74.47
29505;BME280;16452;54.174;12.092;2022-07-29T00:22:02;102001.47;;;18.60;75.15
29505;BME280;16452;54.174;12.092;2022-07-29T00:24:27;102007.31;;;18.77;75.20
29505;BME280;16452;54.174;12.092;2022-07-29T00:26:53;102002.78;;;18.53;76.10
29505;BME280;16452;54.174;12.092;2022-07-29T00:29:19;101998.47;;;18.52;76.80
29505;BME280;16452;54.174;12.092;2022-07-29T00:31:45;101992.06;;;18.56;76.79
29505;BME280;16452;54.174;12.092;2022-07-29T00:34:10;101982.06;;;18.46;76.72
29505;BME280;16452;54.174;12.092;2022-07-29T00:36:56;101979.09;;;18.65;75.98
29505;BME280;16452;54.174;12.092;2022-07-29T00:39:22;101983.44;;;18.52;76.68
29505;BME280;16452;54.174;12.092;2022-07-29T00:41:48;101981.50;;;18.56;76.16
29505;BME280;16452;54.174;12.092;2022-07-29T00:44:14;101984.47;;;18.37;77.04
29505;BME280;16452;54.174;12.092;2022-07-29T00:46:40;101982.69;;;17.96;77.48
29505;BME280;16452;54.174;12.092;2022-07-29T00:49:06;101987.97;;;18.11;77.81
29505;BME280;16452;54.174;12.092;2022-07-29T00:51:36;101981.91;;;18.35;77.68
29505;BME280;16452;54.174;12.092;2022-07-29T00:54:04;101985.56;;;18.20;78.54
29505;BME280;16452;54.174;12.092;2022-07-29T00:56:31;101991.88;;;18.18;78.55
29505;BME280;16452;54.174;12.092;2022-07-29T00:58:58;101989.22;;;17.77;80.16
29505;BME280;16452;54.174;12.092;2022-07-29T01:01:25;101989.13;;;17.92;78.93
29505;BME280;16452;54.174;12.092;2022-07-29T01:03:50;101993.50;;;18.06;78.44
29505;BME280;16452;54.174;12.092;2022-07-29T01:06:17;101982.84;;;18.22;78.71
29505;BME280;16452;54.174;12.092;2022-07-29T01:08:45;101989.44;;;18.41;78.65
29505;BME280;16452;54.174;12.092;2022-07-29T01:11:13;101985.63;;;18.33;79.03
29505;BME280;16452;54.174;12.092;2022-07-29T01:13:40;101989.34;;;18.16;79.23
29505;BME280;16452;54.174;12.092;2022-07-29T01:16:21;101990.06;;;18.32;78.16
29505;BME280;16452;54.174;12.092;2022-07-29T01:18:54;101995.78;;;18.39;78.17
29505;BME280;16452;54.174;12.092;2022-07-29T01:21:43;101990.09;;;18.45;77.19
29505;BME280;16452;54.174;12.092;2022-07-29T01:24:46;101990.81;;;18.47;77.35
29505;BME280;16452;54.174;12.092;2022-07-29T01:27:47;101981.63;;;18.13;78.64
29505;BME280;16452;54.174;12.092;2022-07-29T01:30:17;101978.38;;;17.95;79.51
29505;BME280;16452;54.174;12.092;2022-07-29T01:32:47;101976.81;;;18.20;79.11
29505;BME280;16452;54.174;12.092;2022-07-29T01:35:30;101981.22;;;18.19;78.55
29505;BME280;16452;54.174;12.092;2022-07-29T01:43:53;101978.47;;;18.47;77.28
29505;BME280;16452;54.174;12.092;2022-07-29T01:46:39;101984.47;;;18.64;76.81
29505;BME280;16452;54.174;12.092;2022-07-29T01:49:13;101985.31;;;18.37;77.91
29505;BME280;16452;54.174;12.092;2022-07-29T01:51:50;101985.53;;;18.34;78.16
29505;BME280;16452;54.174;12.092;2022-07-29T01:56:55;101976.84;;;18.32;78.17
29505;BME280;16452;54.174;12.092;2022-07-29T01:59:23;101975.66;;;18.24;78.14
29505;BME280;16452;54.174;12.092;2022-07-29T02:01:57;101967.69;;;18.11;78.50
29505;BME280;16452;54.174;12.092;2022-07-29T02:04:24;101970.19;;;18.27;77.56
29505;BME280;16452;54.174;12.092;2022-07-29T02:06:53;101965.63;;;18.02;79.01
29505;BME280;16452;54.174;12.092;2022-07-29T02:09:22;101975.69;;;18.36;77.69
29505;BME280;16452;54.174;12.092;2022-07-29T02:11:52;101962.59;;;18.22;78.02
29505;BME280;16452;54.174;12.092;2022-07-29T02:14:21;101966.69;;;17.99;78.82
29505;BME280;16452;54.174;12.092;2022-07-29T02:16:51;101963.59;;;18.20;78.31
29505;BME280;16452;54.174;12.092;2022-07-29T02:19:21;101963.13;;;18.27;78.00
29505;BME280;16452;54.174;12.092;2022-07-29T02:21:51;101959.41;;;18.30;77.94
29505;BME280;16452;54.174;12.092;2022-07-29T02:24:28;101959.31;;;18.31;77.95
29505;BME280;16452;54.174;12.092;2022-07-29T02:26:56;101962.38;;;18.25;78.19
29505;BME280;16452;54.174;12.092;2022-07-29T02:29:26;101959.31;;;18.31;78.04
29505;BME280;16452;54.174;12.092;2022-07-29T02:31:52;101963.13;;;18.27;78.20
29505;BME280;16452;54.174;12.092;2022-07-29T02:34:20;101960.28;;;18.30;78.47
29505;BME280;16452;54.174;12.092;2022-07-29T02:36:47;101951.66;;;18.14;78.93
29505;BME280;16452;54.174;12.092;2022-07-29T02:39:15;101951.75;;;18.13;78.84
29505;BME280;16452;54.174;12.092;2022-07-29T02:41:48;101956.53;;;18.20;78.38
29505;BME280;16452;54.174;12.092;2022-07-29T02:44:21;101962.00;;;18.17;78.87
29505;BME280;16452;54.174;12.092;2022-07-29T02:47:02;101949.09;;;18.27;78.61
29505;BME280;16452;54.174;12.092;2022-07-29T02:55:00;101949.44;;;18.47;77.14
29505;BME280;16452;54.174;12.092;2022-07-29T02:57:36;101950.69;;;18.42;77.57
29505;BME280;16452;54.174;12.092;2022-07-29T03:00:08;101943.53;;;18.44;77.75
29505;BME280;16452;54.174;12.092;2022-07-29T03:02:42;101943.94;;;18.38;78.01
29505;BME280;16452;54.174;12.092;2022-07-29T03:05:17;101947.06;;;18.30;78.08
29505;BME280;16452;54.174;12.092;2022-07-29T03:07:49;101941.50;;;18.35;78.38
29505;BME280;16452;54.174;12.092;2022-07-29T03:10:16;101943.66;;;18.16;78.95
29505;BME280;16452;54.174;12.092;2022-07-29T03:12:43;101939.84;;;18.46;78.21
29505;BME280;16452;54.174;12.092;2022-07-29T03:15:09;101937.41;;;18.43;78.23
29505;BME280;16452;54.174;12.092;2022-07-29T03:17:37;101933.94;;;18.43;78.28
29505;BME280;16452;54.174;12.092;2022-07-29T03:20:04;101937.50;;;18.42;78.13
29505;BME280;16452;54.174;12.092;2022-07-29T03:22:30;101946.09;;;18.45;78.23
29505;BME280;16452;54.174;12.092;2022-07-29T03:24:56;101946.81;;;18.47;78.06
29505;BME280;16452;54.174;12.092;2022-07-29T03:27:22;101950.91;;;18.39;78.07
29505;BME280;16452;54.174;12.092;2022-07-29T03:29:48;101944.28;;;18.19;79.21
29505;BME280;16452;54.174;12.092;2022-07-29T03:32:14;101943.44;;;18.19;79.12
29505;BME280;16452;54.174;12.092;2022-07-29T03:34:40;101944.47;;;18.43;78.20
29505;BME280;16452;54.174;12.092;2022-07-29T03:37:06;101943.97;;;18.51;78.69
29505;BME280;16452;54.174;12.092;2022-07-29T03:39:38;101941.41;;;18.63;78.90
29505;BME280;16452;54.174;12.092;2022-07-29T03:42:07;101949.03;;;18.54;79.46
29505;BME280;16452;54.174;12.092;2022-07-29T03:44:36;101948.13;;;18.55;79.24
29505;BME280;16452;54.174;12.092;2022-07-29T03:47:04;101940.13;;;18.81;78.46
29505;BME280;16452;54.174;12.092;2022-07-29T03:49:32;101936.44;;;18.71;79.03
29505;BME280;16452;54.174;12.092;2022-07-29T03:52:02;101932.72;;;18.61;79.05
29505;BME280;16452;54.174;12.092;2022-07-29T03:54:27;101938.00;;;18.61;78.92
29505;BME280;16452;54.174;12.092;2022-07-29T03:56:54;101925.06;;;18.83;78.92
29505;BME280;16452;54.174;12.092;2022-07-29T03:59:23;101926.84;;;18.96;78.45
29505;BME280;16452;54.174;12.092;2022-07-29T04:01:49;101927.06;;;19.05;78.18
29505;BME280;16452;54.174;12.092;2022-07-29T04:04:15;101924.00;;;18.99;78.64
29505;BME280;16452;54.174;12.092;2022-07-29T04:06:44;101934.03;;;18.81;79.38
29505;BME280;16452;54.174;12.092;2022-07-29T04:09:10;101933.28;;;18.79;78.71
29505;BME280;16452;54.174;12.092;2022-07-29T04:11:39;101932.53;;;18.77;78.84
29505;BME280;16452;54.174;12.092;2022-07-29T04:14:05;101933.06;;;18.82;78.98
29505;BME280;16452;54.174;12.092;2022-07-29T04:16:32;101934.16;;;18.92;78.51
29505;BME280;16452;54.174;12.092;2022-07-29T04:18:58;101929.19;;;19.25;77.53
29505;BME280;16452;54.174;12.092;2022-07-29T04:21:24;101929.78;;;19.29;77.25
29505;BME280;16452;54.174;12.092;2022-07-29T04:23:50;101941.75;;;19.60;76.49
29505;BME280;16452;54.174;12.092;2022-07-29T04:26:19;101935.25;;;20.37;74.72
29505;BME280;16452;54.174;12.092;2022-07-29T04:28:46;101923.94;;;20.81;72.16
29505;BME280;16452;54.174;12.092;2022-07-29T04:31:12;101930.50;;;21.44;69.25
29505;BME280;16452;54.174;12.092;2022-07-29T04:33:39;101921.94;;;21.51;67.49
29505;BME280;16452;54.174;12.092;2022-07-29T04:36:05;101929.41;;;21.57;67.63
29505;BME280;16452;54.174;12.092;2022-07-29T04:38:31;101926.97;;;21.88;67.00
29505;BME280;16452;54.174;12.092;2022-07-29T04:40:56;101929.63;;;21.77;66.95
29505;BME280;16452;54.174;12.092;2022-07-29T04:43:22;101923.34;;;22.00;65.96
29505;BME280;16452;54.174;12.092;2022-07-29T04:45:48;101922.88;;;21.95;66.63
29505;BME280;16452;54.174;12.092;2022-07-29T04:48:16;101918.25;;;21.97;66.70
29505;BME280;16452;54.174;12.092;2022-07-29T04:50:42;101918.66;;;21.70;67.80
29505;BME280;16452;54.174;12.092;2022-07-29T04:53:08;101922.22;;;21.91;67.87
29505;BME280;16452;54.174;12.092;2022-07-29T04:55:34;101916.56;;;21.96;66.99
29505;BME280;16452;54.174;12.092;2022-07-29T04:58:02;101913.41;;;22.86;64.88
29505;BME280;16452;54.174;12.092;2022-07-29T05:00:28;101909.94;;;22.33;66.79
29505;BME280;16452;54.174;12.092;2022-07-29T05:02:54;101901.59;;;22.59;65.94
29505;BME280;16452;54.174;12.092;2022-07-29T05:05:19;101907.47;;;22.62;65.54
29505;BME280;16452;54.174;12.092;2022-07-29T05:07:45;101920.81;;;21.87;66.26
29505;BME280;16452;54.174;12.092;2022-07-29T05:10:11;101912.81;;;22.41;65.24
29505;BME280;16452;54.174;12.092;2022-07-29T05:12:37;101915.69;;;22.18;65.46
29505;BME280;16452;54.174;12.092;2022-07-29T05:15:03;101918.56;;;22.67;65.23
29505;BME280;16452;54.174;12.092;2022-07-29T05:17:29;101918.19;;;22.51;64.36
29505;BME280;16452;54.174;12.092;2022-07-29T05:19:55;101920.25;;;22.47;65.12
29505;BME280;16452;54.174;12.092;2022-07-29T05:22:21;101917.28;;;23.03;63.39
29505;BME280;16452;54.174;12.092;2022-07-29T05:24:46;101910.38;;;23.21;62.94
29505;BME280;16452;54.174;12.092;2022-07-29T05:27:13;101911.75;;;23.46;62.16
29505;BME280;16452;54.174;12.092;2022-07-29T05:29:38;101916.72;;;23.00;64.07
29505;BME280;16452;54.174;12.092;2022-07-29T05:32:05;101914.06;;;22.79;65.06
29505;BME280;16452;54.174;12.092;2022-07-29T05:34:31;101921.41;;;22.54;64.80
29505;BME280;16452;54.174;12.092;2022-07-29T05:36:57;101923.94;;;21.92;67.38
29505;BME280;16452;54.174;12.092;2022-07-29T05:39:23;101918.06;;;21.78;68.04
29505;BME280;16452;54.174;12.092;2022-07-29T05:41:49;101928.06;;;22.28;66.29
29505;BME280;16452;54.174;12.092;2022-07-29T05:44:15;101923.47;;;22.30;66.07
29505;BME280;16452;54.174;12.092;2022-07-29T05:46:41;101924.38;;;22.08;67.13
29505;BME280;16452;54.174;12.092;2022-07-29T05:49:06;101928.69;;;21.55;67.75
29505;BME280;16452;54.174;12.092;2022-07-29T05:51:36;101926.88;;;21.67;68.47
29505;BME280;16452;54.174;12.092;2022-07-29T05:54:02;101930.34;;;21.67;69.15
29505;BME280;16452;54.174;12.092;2022-07-29T05:56:27;101921.88;;;21.85;67.39
29505;BME280;16452;54.174;12.092;2022-07-29T05:58:53;101923.16;;;21.47;68.82
29505;BME280;16452;54.174;12.092;2022-07-29T06:01:19;101923.00;;;22.25;67.86
29505;BME280;16452;54.174;12.092;2022-07-29T06:03:45;101924.91;;;21.80;67.95
29505;BME280;16452;54.174;12.092;2022-07-29T06:06:11;101921.81;;;21.64;68.52
29505;BME280;16452;54.174;12.092;2022-07-29T06:08:37;101917.06;;;21.79;68.59
29505;BME280;16452;54.174;12.092;2022-07-29T06:11:04;101919.84;;;21.88;66.67
29505;BME280;16452;54.174;12.092;2022-07-29T06:13:30;101917.91;;;22.01;67.32
29505;BME280;16452;54.174;12.092;2022-07-29T06:15:56;101914.44;;;22.53;65.54
29505;BME280;16452;54.174;12.092;2022-07-29T06:18:22;101909.38;;;22.71;63.12
29505;BME280;16452;54.174;12.092;2022-07-29T06:20:53;101909.50;;;23.11;62.22
29505;BME280;16452;54.174;12.092;2022-07-29T06:23:20;101909.53;;;23.30;61.31
29505;BME280;16452;54.174;12.092;2022-07-29T06:25:46;101914.75;;;23.02;62.05
29505;BME280;16452;54.174;12.092;2022-07-29T06:28:11;101914.09;;;23.09;62.46
29505;BME280;16452;54.174;12.092;2022-07-29T06:30:38;101920.97;;;23.12;61.07
29505;BME280;16452;54.174;12.092;2022-07-29T06:33:04;101914.56;;;23.24;60.73
29505;BME280;16452;54.174;12.092;2022-07-29T06:35:33;101914.41;;;22.95;62.77
29505;BME280;16452;54.174;12.092;2022-07-29T06:38:01;101923.75;;;23.10;61.44
29505;BME280;16452;54.174;12.092;2022-07-29T06:40:27;101921.63;;;23.04;62.07
29505;BME280;16452;54.174;12.092;2022-07-29T06:43:11;101916.75;;;23.09;60.32
29505;BME280;16452;54.174;12.092;2022-07-29T06:45:37;101918.13;;;23.04;61.30
29505;BME280;16452;54.174;12.092;2022-07-29T06:48:06;101914.53;;;23.14;61.31
29505;BME280;16452;54.174;12.092;2022-07-29T06:50:32;101919.22;;;23.01;60.57
29505;BME280;16452;54.174;12.092;2022-07-29T06:52:58;101922.78;;;22.90;61.78
29505;BME280;16452;54.174;12.092;2022-07-29T06:55:24;101914.56;;;22.93;61.24
29505;BME280;16452;54.174;12.092;2022-07-29T06:57:50;101911.72;;;23.06;59.93
29505;BME280;16452;54.174;12.092;2022-07-29T07:00:15;101913.34;;;23.58;59.88
29505;BME280;16452;54.174;12.092;2022-07-29T07:02:41;101908.16;;;23.66;59.26
29505;BME280;16452;54.174;12.092;2022-07-29T07:05:07;101913.09;;;23.81;57.75
29505;BME280;16452;54.174;12.092;2022-07-29T07:07:33;101908.44;;;23.63;58.40
29505;BME280;16452;54.174;12.092;2022-07-29T07:09:59;101904.81;;;23.64;57.62
29505;BME280;16452;54.174;12.092;2022-07-29T07:12:25;101901.97;;;23.56;57.69
29505;BME280;16452;54.174;12.092;2022-07-29T07:14:50;101908.34;;;23.44;58.30
29505;BME280;16452;54.174;12.092;2022-07-29T07:17:16;101910.63;;;23.49;59.36
29505;BME280;16452;54.174;12.092;2022-07-29T07:19:42;101907.06;;;23.79;58.46
29505;BME280;16452;54.174;12.092;2022-07-29T07:22:08;101902.03;;;23.85;58.04
29505;BME280;16452;54.174;12.092;2022-07-29T07:24:34;101909.00;;;23.67;58.17
29505;BME280;16452;54.174;12.092;2022-07-29T07:27:00;101903.16;;;24.02;56.62
29505;BME280;16452;54.174;12.092;2022-07-29T07:29:25;101905.81;;;24.02;56.51
29505;BME280;16452;54.174;12.092;2022-07-29T07:31:51;101912.44;;;24.36;57.48
29505;BME280;16452;54.174;12.092;2022-07-29T07:34:17;101906.69;;;24.41;58.41
29505;BME280;16452;54.174;12.092;2022-07-29T07:36:43;101902.84;;;24.82;58.70
29505;BME280;16452;54.174;12.092;2022-07-29T07:39:09;101893.31;;;24.89;58.69
29505;BME280;16452;54.174;12.092;2022-07-29T07:41:35;101897.25;;;25.22;58.87
29505;BME280;16452;54.174;12.092;2022-07-29T07:44:01;101894.09;;;24.99;58.08
29505;BME280;16452;54.174;12.092;2022-07-29T07:46:26;101901.41;;;24.87;56.55
29505;BME280;16452;54.174;12.092;2022-07-29T07:48:52;101891.22;;;25.20;53.08
29505;BME280;16452;54.174;12.092;2022-07-29T07:51:18;101899.25;;;25.47;53.45
29505;BME280;16452;54.174;12.092;2022-07-29T07:53:44;101886.81;;;25.65;52.98
29505;BME280;16452;54.174;12.092;2022-07-29T07:56:10;101895.22;;;25.33;53.87
29505;BME280;16452;54.174;12.092;2022-07-29T07:58:36;101883.56;;;25.34;55.33
29505;BME280;16452;54.174;12.092;2022-07-29T08:01:02;101891.81;;;25.68;54.92
29505;BME280;16452;54.174;12.092;2022-07-29T08:03:28;101889.88;;;25.33;57.64
29505;BME280;16452;54.174;12.092;2022-07-29T08:05:54;101879.13;;;25.25;57.63
29505;BME280;16452;54.174;12.092;2022-07-29T08:08:20;101882.19;;;25.30;58.78
29505;BME280;16452;54.174;12.092;2022-07-29T08:10:46;101887.63;;;25.39;59.28
29505;BME280;16452;54.174;12.092;2022-07-29T08:13:20;101881.78;;;25.53;63.30
29505;BME280;16452;54.174;12.092;2022-07-29T08:15:46;101882.63;;;25.53;60.13
29505;BME280;16452;54.174;12.092;2022-07-29T08:18:13;101881.78;;;25.53;63.39
29505;BME280;16452;54.174;12.092;2022-07-29T08:20:39;101886.84;;;25.56;61.99
29505;BME280;16452;54.174;12.092;2022-07-29T08:23:07;101876.38;;;25.90;62.01
29505;BME280;16452;54.174;12.092;2022-07-29T08:25:37;101878.44;;;25.96;63.43
29505;BME280;16452;54.174;12.092;2022-07-29T08:28:04;101873.38;;;26.10;62.64
29505;BME280;16452;54.174;12.092;2022-07-29T08:30:30;101879.19;;;25.88;63.34
29505;BME280;16452;54.174;12.092;2022-07-29T08:32:58;101872.41;;;25.94;64.01
29505;BME280;16452;54.174;12.092;2022-07-29T08:35:24;101874.53;;;25.90;64.45
29505;BME280;16452;54.174;12.092;2022-07-29T08:37:51;101875.19;;;25.57;65.52
29505;BME280;16452;54.174;12.092;2022-07-29T08:40:17;101879.91;;;25.63;65.17
29505;BME280;16452;54.174;12.092;2022-07-29T08:42:43;101870.13;;;25.54;65.94
29505;BME280;16452;54.174;12.092;2022-07-29T08:45:10;101873.34;;;25.30;67.74
29505;BME280;16452;54.174;12.092;2022-07-29T08:47:38;101871.25;;;25.24;67.99
29505;BME280;16452;54.174;12.092;2022-07-29T08:50:09;101885.31;;;24.79;69.39
29505;BME280;16452;54.174;12.092;2022-07-29T08:52:40;101879.69;;;24.92;70.41
29505;BME280;16452;54.174;12.092;2022-07-29T08:55:09;101876.06;;;24.74;70.73
29505;BME280;16452;54.174;12.092;2022-07-29T08:57:36;101880.56;;;24.64;70.82
29505;BME280;16452;54.174;12.092;2022-07-29T09:00:06;101871.72;;;24.73;71.27
29505;BME280;16452;54.174;12.092;2022-07-29T09:02:39;101864.31;;;24.67;70.70
29505;BME280;16452;54.174;12.092;2022-07-29T09:05:06;101874.56;;;24.62;70.20
29505;BME280;16452;54.174;12.092;2022-07-29T09:07:33;101874.81;;;24.59;71.85
29505;BME280;16452;54.174;12.092;2022-07-29T09:09:59;101875.88;;;24.38;72.09
29505;BME280;16452;54.174;12.092;2022-07-29T09:12:26;101873.88;;;24.40;72.45
29505;BME280;16452;54.174;12.092;2022-07-29T09:14:52;101877.53;;;24.30;72.65
29505;BME280;16452;54.174;12.092;2022-07-29T09:17:17;101873.00;;;24.59;71.17
29505;BME280;16452;54.174;12.092;2022-07-29T09:19:45;101865.53;;;24.72;69.76
29505;BME280;16452;54.174;12.092;2022-07-29T09:22:11;101867.00;;;24.47;71.62
29505;BME280;16452;54.174;12.092;2022-07-29T09:24:41;101868.06;;;24.74;70.90
29505;BME280;16452;54.174;12.092;2022-07-29T09:29:46;101865.28;;;24.66;71.26
29505;BME280;16452;54.174;12.092;2022-07-29T09:32:12;101866.31;;;25.02;71.08
29505;BME280;16452;54.174;12.092;2022-07-29T09:34:38;101866.31;;;25.29;69.45
29505;BME280;16452;54.174;12.092;2022-07-29T09:37:04;101862.53;;;25.31;69.44
29505;BME280;16452;54.174;12.092;2022-07-29T09:39:38;101858.97;;;25.41;69.27
29505;BME280;16452;54.174;12.092;2022-07-29T09:42:12;101856.25;;;25.23;70.51
29505;BME280;16452;54.174;12.092;2022-07-29T09:44:45;101856.50;;;25.57;70.60
29505;BME280;16452;54.174;12.092;2022-07-29T09:47:11;101858.47;;;25.55;71.89
29505;BME280;16452;54.174;12.092;2022-07-29T09:49:58;101849.06;;;25.33;71.94
29505;BME280;16452;54.174;12.092;2022-07-29T09:52:26;101846.91;;;25.36;72.64
29505;BME280;16452;54.174;12.092;2022-07-29T09:54:52;101847.44;;;25.40;71.97
29505;BME280;16452;54.174;12.092;2022-07-29T09:57:27;101848.59;;;25.83;70.58
29505;BME280;16452;54.174;12.092;2022-07-29T10:00:19;101854.16;;;24.80;74.28
29505;BME280;16452;54.174;12.092;2022-07-29T10:02:47;101860.03;;;24.27;76.68
29505;BME280;16452;54.174;12.092;2022-07-29T10:05:36;101855.91;;;24.52;76.39
29505;BME280;16452;54.174;12.092;2022-07-29T10:08:02;101849.38;;;24.27;77.18
29505;BME280;16452;54.174;12.092;2022-07-29T10:10:34;101851.00;;;24.47;76.62
29505;BME280;16452;54.174;12.092;2022-07-29T10:13:09;101847.00;;;24.34;78.97
29505;BME280;16452;54.174;12.092;2022-07-29T10:15:39;101848.84;;;24.70;77.26
29505;BME280;16452;54.174;12.092;2022-07-29T10:18:08;101844.78;;;24.66;77.80
29505;BME280;16452;54.174;12.092;2022-07-29T10:20:34;101839.50;;;24.47;78.92
29505;BME280;16452;54.174;12.092;2022-07-29T10:23:01;101842.16;;;24.47;78.53
29505;BME280;16452;54.174;12.092;2022-07-29T10:25:27;101837.00;;;24.45;78.84
29505;BME280;16452;54.174;12.092;2022-07-29T10:27:54;101844.06;;;24.27;79.51
29505;BME280;16452;54.174;12.092;2022-07-29T10:30:22;101837.38;;;24.60;78.86
29505;BME280;16452;54.174;12.092;2022-07-29T10:35:45;101842.66;;;24.79;78.38
29505;BME280;16452;54.174;12.092;2022-07-29T10:39:14;101834.56;;;24.62;79.10
29505;BME280;16452;54.174;12.092;2022-07-29T10:41:43;101829.84;;;24.36;80.07
29505;BME280;16452;54.174;12.092;2022-07-29T10:44:23;101828.09;;;24.74;78.88
29505;BME280;16452;54.174;12.092;2022-07-29T10:46:51;101834.94;;;24.10;80.52
29505;BME280;16452;54.174;12.092;2022-07-29T10:49:20;101831.66;;;24.55;79.75
29505;BME280;16452;54.174;12.092;2022-07-29T10:52:05;101828.69;;;24.58;79.49
29505;BME280;16452;54.174;12.092;2022-07-29T10:59:49;101832.81;;;24.89;78.12
29505;BME280;16452;54.174;12.092;2022-07-29T11:05:05;101821.56;;;24.95;78.46
29505;BME280;16452;54.174;12.092;2022-07-29T11:07:33;101827.88;;;24.94;77.35
29505;BME280;16452;54.174;12.092;2022-07-29T11:15:13;101820.31;;;25.45;76.06
29505;BME280;16452;54.174;12.092;2022-07-29T11:20:40;101821.38;;;25.79;75.20
29505;BME280;16452;54.174;12.092;2022-07-29T11:31:51;101811.22;;;25.38;77.49
29505;BME280;16452;54.174;12.092;2022-07-29T11:34:29;101802.06;;;25.85;76.87
29505;BME280;16452;54.174;12.092;2022-07-29T11:39:43;101798.91;;;25.54;76.43
29505;BME280;16452;54.174;12.092;2022-07-29T11:45:07;101797.88;;;25.38;77.73
29505;BME280;16452;54.174;12.092;2022-07-29T11:47:56;101797.44;;;25.42;78.69
29505;BME280;16452;54.174;12.092;2022-07-29T11:50:36;101793.19;;;25.22;78.48
29505;BME280;16452;54.174;12.092;2022-07-29T11:53:11;101796.53;;;25.69;77.54
29505;BME280;16452;54.174;12.092;2022-07-29T11:55:39;101796.22;;;25.36;78.72
29505;BME280;16452;54.174;12.092;2022-07-29T11:58:05;101793.41;;;25.38;78.00
29505;BME280;16452;54.174;12.092;2022-07-29T12:00:40;101792.72;;;25.09;77.69
29505;BME280;16452;54.174;12.092;2022-07-29T12:03:08;101793.38;;;24.83;80.55
29505;BME280;16452;54.174;12.092;2022-07-29T12:05:43;101784.75;;;25.26;79.59
29505;BME280;16452;54.174;12.092;2022-07-29T12:08:16;101789.03;;;24.82;79.94
29505;BME280;16452;54.174;12.092;2022-07-29T12:10:45;101787.78;;;24.86;80.21
29505;BME280;16452;54.174;12.092;2022-07-29T12:13:19;101780.84;;;25.03;79.02
29505;BME280;16452;54.174;12.092;2022-07-29T12:15:54;101786.84;;;25.32;78.65
29505;BME280;16452;54.174;12.092;2022-07-29T12:18:20;101781.31;;;24.89;73.76
29505;BME280;16452;54.174;12.092;2022-07-29T12:20:47;101775.25;;;24.97;76.09
29505;BME280;16452;54.174;12.092;2022-07-29T12:23:14;101785.38;;;25.20;76.34
29505;BME280;16452;54.174;12.092;2022-07-29T12:25:43;101783.81;;;25.18;75.06
29505;BME280;16452;54.174;12.092;2022-07-29T12:28:14;101776.91;;;25.25;75.62
29505;BME280;16452;54.174;12.092;2022-07-29T12:30:49;101777.06;;;24.96;74.11
29505;BME280;16452;54.174;12.092;2022-07-29T12:33:24;101776.59;;;24.73;75.89
29505;BME280;16452;54.174;12.092;2022-07-29T12:35:58;101781.31;;;24.89;71.79
29505;BME280;16452;54.174;12.092;2022-07-29T12:38:25;101776.56;;;25.10;72.72
29505;BME280;16452;54.174;12.092;2022-07-29T12:40:53;101775.78;;;25.27;73.54
29505;BME280;16452;54.174;12.092;2022-07-29T12:43:21;101771.22;;;25.55;73.74
29505;BME280;16452;54.174;12.092;2022-07-29T12:45:53;101772.44;;;24.98;75.08
29505;BME280;16452;54.174;12.092;2022-07-29T12:48:37;101774.63;;;25.48;72.96
29505;BME280;16452;54.174;12.092;2022-07-29T12:51:05;101773.97;;;25.81;72.96
29505;BME280;16452;54.174;12.092;2022-07-29T12:53:32;101769.91;;;25.42;74.84
29505;BME280;16452;54.174;12.092;2022-07-29T12:55:59;101779.91;;;25.57;74.19
29505;BME280;16452;54.174;12.092;2022-07-29T12:58:39;101766.50;;;25.85;71.65
29505;BME280;16452;54.174;12.092;2022-07-29T13:01:16;101766.13;;;25.62;73.42
29505;BME280;16452;54.174;12.092;2022-07-29T13:09:16;101771.19;;;25.20;70.41
29505;BME280;16452;54.174;12.092;2022-07-29T13:11:52;101755.06;;;25.39;70.59
29505;BME280;16452;54.174;12.092;2022-07-29T13:14:40;101753.66;;;25.53;72.53
29505;BME280;16452;54.174;12.092;2022-07-29T13:17:15;101748.72;;;25.58;74.19
29505;BME280;16452;54.174;12.092;2022-07-29T13:19:49;101749.25;;;25.44;74.62
29505;BME280;16452;54.174;12.092;2022-07-29T13:22:24;101739.06;;;25.12;73.32
29505;BME280;16452;54.174;12.092;2022-07-29T13:24:56;101741.75;;;25.29;74.28
29505;BME280;16452;54.174;12.092;2022-07-29T13:27:34;101743.69;;;25.55;72.85
29505;BME280;16452;54.174;12.092;2022-07-29T13:30:08;101742.41;;;25.59;72.83
29505;BME280;16452;54.174;12.092;2022-07-29T13:32:35;101735.00;;;25.70;72.67
29505;BME280;16452;54.174;12.092;2022-07-29T13:35:05;101729.72;;;25.79;73.00
29505;BME280;16452;54.174;12.092;2022-07-29T13:37:34;101725.19;;;25.97;71.14
29505;BME280;16452;54.174;12.092;2022-07-29T13:40:02;101721.84;;;26.21;71.25
29505;BME280;16452;54.174;12.092;2022-07-29T13:42:28;101738.44;;;26.06;72.07
29505;BME280;16452;54.174;12.092;2022-07-29T13:44:54;101737.53;;;25.98;72.50